Level: Generation 2 Hard 1
Medal times: 9.979 author, 11.000 gold, 12.000 silver (finish the level to receive the bronze medal).
2 laps. Author lap times: 6.633, 3.346

Global leaderboard:
country
|| online
|| |  time   date       time     player #rank    lap times
US N  9.496s 2024-01-09 20:51 Jk #1  6.300,3.196
SA N  9.496s 2024-01-09 21:21 Ninjacat โšก #2  6.300,3.196
US N  9.496s 2024-01-09 22:33 namy #3  6.300,3.196
US N  9.496s 2024-01-09 23:16 Buc #4  6.300,3.196
BE N  9.496s 2024-01-09 23:34 belgianguy ๐Ÿ‘บ #5  6.300,3.196
US N  9.496s 2024-01-10 01:39 Wad the Yasin #6  6.300,3.196
AZ N  9.496s 2024-01-12 16:44 LeeqziTheGoat #7  6.300,3.196
DE N  9.496s 2024-06-22 14:10 Pluxa #8  6.300,3.196
NO N  9.496s 2025-01-10 14:27 Fai gentaseters #9  6.300,3.196
NL N  9.496s 2025-01-14 21:42 BertSteen #10  6.300,3.196
US N  9.513s 2024-01-09 20:50 Jaska ๐Ÿฆœ #11  6.300,3.213
NO N  9.513s 2024-01-09 22:27 Mjautra #12  6.316,3.197
EG N  9.513s 2024-01-10 01:26 Wad the goat #13  6.316,3.197
EE N  9.513s 2024-01-13 12:01 clawsol #14  6.316,3.197
RU N  9.513s 2024-04-01 17:46 ะบะพั‡ ะฟะฐะฝั‚ะตั€ะฐ #15  6.300,3.213
AU N  9.513s 2024-04-23 22:47 Ods952 #16  6.316,3.197
US N  9.513s 2024-06-02 21:36 Poqzi #17  6.300,3.213
GB N  9.529s 2024-01-09 21:29 โ–‘โ–‘โ–‘scorpianโ–‘โ–‘โ–‘ โ–‘โ–‘โ–‘โ–‘โ–‘โ–‘โ–‘โ–‘โ–‘โ–‘โ–‘โ–‘โ–‘โ–‘โ–‘โ–‘โ–‘โ–‘โ–‘โ–‘โ–‘โ–‘โ–‘โ–‘โ–‘โ–‘โ–‘โ–‘โ–‘โ–‘โ–‘โ–‘โ–‘โ–‘โ–‘โ–‘โ–‘โ–‘โ–‘โ–‘โ–‘โ–‘โ–‘โ–‘โ–‘โ–‘โ–‘โ–‘โ–‘ #18  6.300,3.229
US N  9.529s 2024-01-09 23:40 eleven ๐Ÿฆ #19  6.333,3.196
AQ N  9.529s 2024-01-10 15:40 OsamaSon #20  6.333,3.196
DE N  9.529s 2024-07-17 18:29 Cola #21  6.316,3.213
FR N  9.529s 2025-01-05 18:24 Evan 2 Orleans #22  6.300,3.229
PL N  9.529s 2025-11-07 20:58 ItsSpaceUK #23  6.300,3.229
BE N  9.530s 2024-01-10 01:16 BoltDaPotato #24  6.333,3.197
US N  9.530s 2024-03-11 21:54 AF Snxw 7! #25  6.333,3.197
NL N  9.530s 2026-09-06 02:07 Sxyso #26  6.300,3.230
PL N  9.546s 2023-04-14 17:28 ViktorX #27  6.266,3.280
US N  9.546s 2024-01-04 19:18 Keef #28  6.266,3.280
GB N  9.546s 2024-01-05 18:29 FierkHotBoy231 #29  6.266,3.280
CA N  9.546s 2024-02-04 20:35 ๐ฌ๐š๐ฏ๐ฑ๐ณ #30  6.333,3.213
DE N  9.546s 2025-04-16 22:49 deleted user #31  6.316,3.230
GS N  9.561s 2024-04-11 03:01 Jahamez quit #32  6.366,3.195
ES N  9.563s 2023-02-05 15:39 Zypor #33  6.266,3.297
SE N  9.563s 2023-02-19 22:41 Klaj #34  6.266,3.297
IL N  9.563s 2023-02-23 21:37 Fxctow #35  6.266,3.297
US N  9.563s 2023-03-01 20:22 SoapyBubblz #36  6.266,3.297
US N  9.563s 2023-04-14 01:38 Diz ไนˆ #37  6.266,3.297
HR N  9.563s 2023-06-30 10:53 Astrix #38  6.266,3.297
CA N  9.563s 2023-08-14 04:20 poopypuppy838 #39  6.266,3.297
CA N  9.563s 2023-09-10 02:18 Kazi #40  6.266,3.297
US N  9.563s 2023-11-25 05:21 Void ้€ #41  6.266,3.297
AU N  9.563s 2024-01-09 22:10 kado #42  6.316,3.247
BE N  9.563s 2024-01-12 10:19 Dill Doe Lover ๐ŸŽ‰ #43  6.333,3.230
BG Y  9.579s 2023-02-14 14:36 ice #44  6.283,3.296
SE N  9.579s 2023-02-18 19:43 Smizzy #45  6.283,3.296
SE N  9.579s 2023-02-24 21:44 deleted user #46  6.283,3.296
US N  9.579s 2023-02-27 02:20 ๐’๐’†๐’˜๐’‡๐’† #47  6.283,3.296
RU Y  9.579s 2023-03-06 15:45 brUHname #48  6.283,3.296
FR N  9.579s 2023-03-11 19:20 Tg๐Ÿ’ค #49  6.283,3.296
US N  9.579s 2023-03-12 18:56 Buc alt #50  6.283,3.296
US N  9.579s 2023-03-17 18:44 blazing #51  6.283,3.296
US N  9.579s 2023-03-28 16:49 deleted user #52  6.283,3.296
FR Y  9.579s 2023-04-01 11:43 deleted user #53  6.283,3.296
IL Y  9.579s 2023-04-05 11:33 BeNa1m #54  6.283,3.296
GR N  9.579s 2023-04-06 20:21 TheNameless #55  6.283,3.296
CA N  9.579s 2023-04-08 01:09 Serendipity #56  6.283,3.296
US N  9.579s 2023-04-08 18:37 Guest Nine #57  6.283,3.296
US Y  9.579s 2023-04-15 03:31 kopex #58  6.283,3.296
CA N  9.579s 2023-04-20 02:24 vulpix #59  6.283,3.296
US N  9.579s 2023-04-20 02:48 kaboom #60  6.283,3.296
DE N  9.579s 2023-04-22 14:43 Guest5260 #61  6.283,3.296
PL N  9.579s 2023-05-03 17:55 ksyku #62  6.283,3.296
CA N  9.579s 2023-06-01 14:31 zoomie ๐Ÿซ› #63  6.283,3.296
US N  9.579s 2023-09-30 03:22 Postro #64  6.283,3.296
US N  9.579s 2023-10-10 02:37 Undisputed Exunofficial Goat #65  6.283,3.296
DE N  9.579s 2023-11-18 20:13 nyl #66  6.283,3.296
US N  9.579s 2023-11-24 21:46 willow ๐Ÿฆ #67  6.283,3.296
DE N  9.579s 2024-01-05 14:01 Adrian21 #68  6.283,3.296
US N  9.579s 2024-01-10 15:29 ๐˜ฎ๐˜ข๐˜ง๐˜ช๐˜ข #69  6.350,3.229
US N  9.579s 2024-06-22 04:55 A2 #70  6.283,3.296
SE N  9.579s 2024-06-29 07:33 J Sondre #71  6.400,3.179
US N  9.579s 2025-10-14 00:00 TheRapid1 #72  6.400,3.179
AQ N  9.580s 2023-04-08 05:20 deleted user #73  6.300,3.280
US N  9.580s 2023-10-27 18:45 Stryme #74  6.300,3.280
HK N  9.580s 2025-01-01 12:56 nova #75  6.383,3.197
GB N  9.580s 2025-01-02 21:44 Curry #30 #76  6.333,3.247
SE N  9.596s 2023-02-07 17:28 SpiderVilgot #77  6.300,3.296
HR N  9.596s 2023-02-10 21:26 svenq1 #78  6.300,3.296
US N  9.596s 2023-02-13 20:27 #free zap #79  6.300,3.296
AU N  9.596s 2023-02-14 12:56 deleted user #80  6.300,3.296
NL N  9.596s 2023-02-14 20:10 SuperFire #81  6.300,3.296
CA N  9.596s 2023-02-15 20:58 Th3on3C #82  6.300,3.296
GB N  9.596s 2023-02-15 23:44 Cotton #83  6.300,3.296
US N  9.596s 2023-02-18 15:38 DillWill #84  6.300,3.296
US N  9.596s 2023-02-19 17:40 Hole #85  6.300,3.296
TR Y  9.596s 2023-02-20 22:21 Yang Wen-li #86  6.300,3.296
US N  9.596s 2023-02-24 00:45 Doggy #87  6.300,3.296
US Y  9.596s 2023-02-24 12:24 ray ewc qualifier (he made it in)๐Ÿฅน #88  6.300,3.296
NZ Y  9.596s 2023-02-25 06:29 Kexalz #89  6.300,3.296
US N  9.596s 2023-02-25 22:54 Yolaquarion #90  6.300,3.296
RO Y  9.596s 2023-02-28 08:56 fail #91  6.300,3.296
SE Y  9.596s 2023-03-04 11:17 M5 #92  6.300,3.296
SE Y  9.596s 2023-03-04 14:29 Wxrly #93  6.300,3.296
AU Y  9.596s 2023-03-07 20:41 Jax ๐Ÿฆœ #94  6.300,3.296
US N  9.596s 2023-03-08 04:22 ๐Ÿง€๐Ÿฃ #95  6.300,3.296
LU N  9.596s 2023-03-09 18:08 organ #96  6.300,3.296
US N  9.596s 2023-03-09 19:37 Hello #97  6.283,3.313
US N  9.596s 2023-03-11 04:24 Geebee #98  6.300,3.296
ID N  9.596s 2023-03-11 11:29 (blank name) #99  6.300,3.296
US Y  9.596s 2023-03-12 00:53 LukyExo #100  6.300,3.296
AU Y  9.596s 2023-03-12 11:04 Rogues #101  6.300,3.296
US N  9.596s 2023-03-17 20:58 Timothy Tabet #102  6.300,3.296
NO N  9.596s 2023-03-23 20:49 Arne #103  6.300,3.296
ID Y  9.596s 2023-03-24 05:11 revaaA #104  6.300,3.296
US N  9.596s 2023-03-25 12:09 adumm! #105  6.300,3.296
US N  9.596s 2023-03-28 22:51 TใกAใฏIใ‚„CใตHใ‚‹I. #106  6.300,3.296
US N  9.596s 2023-04-08 21:42 branson #107  6.300,3.296
AU Y  9.596s 2023-04-14 11:00 deleted user #108  6.300,3.296
BE N  9.596s 2023-04-18 16:23 Xel #109  6.300,3.296
FR N  9.596s 2023-04-20 16:20 Aalex3 #110  6.300,3.296
AU Y  9.596s 2023-04-21 06:20 arka #111  6.300,3.296
NL N  9.596s 2023-04-21 17:33 ๐•ƒ๐•š๐•ฅ๐•™๐•š๐•ฆ๐•žใ‚ท #112  6.300,3.296
US N  9.596s 2023-04-23 20:09 jacoba #113  6.300,3.296
HR N  9.596s 2023-04-24 21:36 svenq2 #114  6.300,3.296
DE N  9.596s 2023-04-27 12:58 Vang #115  6.300,3.296
US Y  9.596s 2023-04-29 18:58 bad at game #116  6.300,3.296
US Y  9.596s 2023-05-02 21:38 Øptify #117  6.300,3.296
BE N  9.596s 2023-05-03 16:09 72 #118  6.300,3.296
US N  9.596s 2023-05-28 22:18 Nick eh 30 #119  6.300,3.296
SE N  9.596s 2023-08-03 22:30 alwin #120  6.300,3.296
CA N  9.596s 2023-08-15 13:36 GNARLY #121  6.300,3.296
FI N  9.596s 2023-09-17 12:12 YeFu #122  6.300,3.296
HR N  9.596s 2023-09-21 17:54 Empyroan #123  6.300,3.296
HU N  9.596s 2023-10-22 09:16 doma420 #124  6.300,3.296
RU N  9.596s 2023-11-15 16:46 ะบะพั‡ ะณะพะปะดะฐ #125  6.300,3.296
RU N  9.596s 2023-11-21 05:44 ูƒุณ #126  6.300,3.296
CA N  9.596s 2023-11-21 18:23 Ghost #127  6.300,3.296
GB N  9.596s 2023-11-25 16:19 Misa Amane #128  6.300,3.296
IE N  9.596s 2024-01-10 19:17 Leaky Bum #129  6.300,3.296
AU N  9.596s 2024-03-13 04:17 ๐Ÿ‘‰๐Ÿ‘ˆ๐Ÿฅบ #130  6.300,3.296
PL N  9.596s 2024-04-30 19:14 T. #131  6.300,3.296
GB N  9.596s 2024-05-19 13:12 deleted user #132  6.350,3.246
US N  9.596s 2024-06-29 21:19 warermelon #133  6.316,3.280
DE N  9.596s 2024-11-23 08:37 Creeper #134  6.366,3.230
BE N  9.596s 2026-08-11 02:00 Alfie ( Slowed + Gay ) #135  6.350,3.246
US N  9.596s 2026-08-13 23:22 kaboom #136  6.333,3.263
US N  9.613s 2023-02-05 00:22 Blaze #137  6.316,3.297
RS N  9.613s 2023-02-05 12:20 Djole #138  6.333,3.280
AU N  9.613s 2023-02-11 04:28 aydin #139  6.316,3.297
AU N  9.613s 2023-02-11 04:48 exocash on tt #140  6.316,3.297
VN N  9.613s 2023-02-12 03:01 ks2 #141  6.316,3.297
FR N  9.613s 2023-02-13 10:00 deleted user #142  6.316,3.297
IT Y  9.613s 2023-02-14 14:39 Symoo #143  6.316,3.297
IT N  9.613s 2023-02-16 12:53 Markgold85 #144  6.316,3.297
SE N  9.613s 2023-02-16 17:26 s0ku #145  6.316,3.297
AG N  9.613s 2023-02-17 23:54 clawsol’s catgirl #146  6.316,3.297
US N  9.613s 2023-02-18 04:44 Exonimous #147  6.316,3.297
RO N  9.613s 2023-02-20 12:56 Bad dragon #148  6.316,3.297
US N  9.613s 2023-02-28 16:29 Fuzzi #149  6.316,3.297
SE N  9.613s 2023-03-01 11:56 Marrebarre #150  6.316,3.297
SE N  9.613s 2023-03-04 13:03 Johan #151  6.300,3.313
BE N  9.613s 2023-03-05 11:45 BrentDaPotato #152  6.316,3.297
US Y  9.613s 2023-03-07 01:34 Fell off #153  6.316,3.297
FR N  9.613s 2023-03-09 20:22 POPOP170 #154  6.316,3.297
SE Y  9.613s 2023-03-10 15:19 ๐–Ž๐–˜๐›ผ๐–[] #155  6.316,3.297
NO N  9.613s 2023-03-15 20:44 Eggy #156  6.316,3.297
US N  9.613s 2023-03-17 06:59 Jack๐Ÿ’œ #157  6.316,3.297
US N  9.613s 2023-03-18 18:33 ๋น„์•ฐ๋”๋ธ”์œ  #158  6.316,3.297
CA N  9.613s 2023-03-20 21:21 ItsDino #159  6.316,3.297
US Y  9.613s 2023-03-24 14:02 crit #160  6.316,3.297
RO N  9.613s 2023-03-25 13:31 Yora's bad #161  6.316,3.297
AU N  9.613s 2023-03-28 08:54 dano #162  6.316,3.297
ES Y  9.613s 2023-04-05 18:38 Aqprox #163  6.316,3.297
SE Y  9.613s 2023-04-06 20:34 AggZel #164  6.316,3.297
US N  9.613s 2023-04-09 05:53 ๐••๐•Ÿ๐•ง๐•ฃ #165  6.316,3.297
AU Y  9.613s 2023-04-11 11:16 banofmetal #166  6.316,3.297
CA Y  9.613s 2023-04-15 20:27 junkie #167  6.316,3.297
US Y  9.613s 2023-04-16 18:07 deleted user #168  6.266,3.347
FR N  9.613s 2023-04-22 10:27 SkyAdrix #169  6.316,3.297
CA Y  9.613s 2023-04-30 20:18 Arrtix #170  6.316,3.297
DK Y  9.613s 2023-05-02 13:52 Arda #171  6.316,3.297
FR N  9.613s 2023-06-10 07:49 Leo XD #172  6.316,3.297
DK N  9.613s 2023-06-15 17:55 ace #173  6.316,3.297
IT N  9.613s 2023-06-27 20:38 EddySilva #174  6.316,3.297
DE N  9.613s 2023-07-27 19:03 1umawoofforep1c #175  6.316,3.297
AE N  9.613s 2023-09-23 08:30 GranaDyy #176  6.316,3.297
AR N  9.613s 2023-10-06 22:25 Niccitosolito #177  6.316,3.297
BE N  9.613s 2023-10-16 11:56 Juanjan #178  6.316,3.297
US N  9.613s 2023-10-28 20:34 Melting_potato #179  6.316,3.297
DE N  9.613s 2023-10-28 20:35 zk #180  6.316,3.297
DE N  9.613s 2023-10-31 12:30 Faust #181  6.316,3.297
GE N  9.613s 2023-11-12 14:38 Qerfexzz #182  6.316,3.297
RU N  9.613s 2023-11-17 10:29 ะบะพั‡ ะฑั€ะฐั‚ะฐะฝ #183  6.316,3.297
FI N  9.613s 2023-12-21 19:10 Mikkelsgolf #184  6.316,3.297
HU N  9.613s 2024-01-10 15:32 Luck #185  6.333,3.280
NL N  9.613s 2024-03-31 17:20 cas #186  6.316,3.297
US N  9.613s 2024-07-16 20:05 Flixy #187  6.383,3.230
DE N  9.613s 2024-08-29 15:44 Cerise Bianca #188  6.316,3.297
PL N  9.613s 2024-09-02 16:38 ๐•Ž๐•–๐•ฅ๐•ฃ๐•ฉใ‚ท #189  6.316,3.297
NL N  9.613s 2024-11-30 19:34 Guest5206 #190  6.333,3.280
UA N  9.613s 2025-09-01 04:56 EgorTheGoat #191  6.316,3.297
DE N  9.613s 2026-07-25 23:39 LoneWorf #192  6.400,3.213
NL N  9.629s 2023-02-05 22:24 Nairolf #193  6.333,3.296
NL N  9.629s 2023-02-07 17:42 ๐•ฐ๐–๐–”๐–™๐–Ž๐–Š๐–˜ #194  6.333,3.296
FR N  9.629s 2023-02-08 11:00 Gus #195  6.333,3.296
PL N  9.629s 2023-02-10 13:43 sage #196  6.333,3.296
SE N  9.629s 2023-02-12 13:55 deleted user #197  6.333,3.296
ES N  9.629s 2023-02-12 19:29 Janixx #198  6.333,3.296
US N  9.629s 2023-02-16 19:13 ExoAsian #199  6.333,3.296
TT N  9.629s 2023-02-17 11:41 i hate henry๐Ÿ˜ก #200  6.333,3.296
AU Y  9.629s 2023-02-18 10:20 Mmm #201  6.333,3.296
LU Y  9.629s 2023-02-18 10:20 Orgasify #202  6.316,3.313
US N  9.629s 2023-02-19 21:32 Mahatma Ghandi #203  6.333,3.296
US Y  9.629s 2023-02-24 18:30 tuxz #204  6.333,3.296
US N  9.629s 2023-02-25 02:43 clex #205  6.316,3.313
AU N  9.629s 2023-03-01 02:05 lil ady #206  6.333,3.296
NO Y  9.629s 2023-03-01 15:53 ItzMax #207  6.316,3.313
CA N  9.629s 2023-03-04 21:58 Ed12 #208  6.333,3.296
FR Y  9.629s 2023-03-05 10:15 ๐•ฎ๐–๐–†๐–™๐–”๐–“๐•ธ๐–†๐–Œ๐–Ž๐––๐–š๐–Š #209  6.333,3.296
IT N  9.629s 2023-03-06 20:23 GiovaIlGiova #210  6.333,3.296
PL Y  9.629s 2023-03-19 14:43 xy_rl #211  6.333,3.296
US N  9.629s 2023-03-24 00:47 Scopez ใƒค #212  6.333,3.296
FR N  9.629s 2023-03-25 15:40 Azari #213  6.333,3.296
US Y  9.629s 2023-03-25 22:19 Bobz #214  6.333,3.296
SR Y  9.629s 2023-03-26 19:10 deleted user #215  6.333,3.296
IT N  9.629s 2023-03-29 16:16 Teoo #216  6.333,3.296
FI Y  9.629s 2023-04-01 17:47 Lapazz #217  6.333,3.296
IE N  9.629s 2023-04-08 17:00 PADDY #218  6.333,3.296
US N  9.629s 2023-04-10 00:58 Zonerr #219  6.333,3.296
VN N  9.629s 2023-04-10 13:28 iz #220  6.333,3.296
AU N  9.629s 2023-04-18 07:08 Ye cxnst hath #221  6.333,3.296
EG N  9.629s 2023-04-21 01:08 Awakenedyoussif #222  6.333,3.296
IT Y  9.629s 2023-04-30 19:49 Pit #223  6.333,3.296
AT N  9.629s 2023-05-02 06:38 marxel #224  6.333,3.296
AT N  9.629s 2023-05-10 19:42 philip #225  6.333,3.296
AT N  9.629s 2023-05-20 17:13 philip #226  6.333,3.296
FI N  9.629s 2023-08-03 16:27 Veikk4 #227  6.333,3.296
US N  9.629s 2023-08-06 08:14 SiR #228  6.333,3.296
US N  9.629s 2023-09-13 23:45 bricen! #229  6.333,3.296
FI N  9.629s 2023-09-27 13:35 Lähden kävelemään kaupungille #230  6.333,3.296
CA N  9.629s 2024-01-07 14:29 Exo_RCat #231  6.333,3.296
KP N  9.629s 2024-01-11 01:23 trinity! #232  6.416,3.213
US N  9.629s 2024-06-28 01:42 CaseForceX3 #233  6.350,3.279
RO N  9.646s 2023-02-09 18:07 Bonan02 #234  6.350,3.296
GB N  9.646s 2023-02-11 17:25 MagicTurtle322 #235  6.350,3.296
GR N  9.646s 2023-02-12 09:54 sxne #236  6.350,3.296
CH N  9.646s 2023-02-17 15:20 gogo #237  6.350,3.296
FR Y  9.646s 2023-02-18 10:19 LittleKatsu #238  6.350,3.296
CA Y  9.646s 2023-02-18 21:31 Sourcakegamerz #239  6.350,3.296
FI N  9.646s 2023-02-19 15:59 MataP16 #240  6.350,3.296
SE N  9.646s 2023-02-20 14:58 Xyzzar #241  6.350,3.296
JP N  9.646s 2023-02-24 22:02 Farid #242  6.350,3.296
LU N  9.646s 2023-02-25 21:28 Pyro #243  6.350,3.296
US Y  9.646s 2023-02-26 01:08 #1 The Weeknd Fan #244  6.350,3.296
US N  9.646s 2023-02-27 19:03 Kop #245  6.350,3.296
CA Y  9.646s 2023-02-27 20:20 Thane! #246  6.350,3.296
BE Y  9.646s 2023-03-06 15:23 chezy #247  6.350,3.296
CA Y  9.646s 2023-03-08 21:12 Guest2216 #248  6.350,3.296
IT N  9.646s 2023-03-10 08:23 Firey #249  6.350,3.296
AU N  9.646s 2023-03-15 06:30 flyingnarwhale #250  6.350,3.296
US Y  9.646s 2023-03-17 00:51 lotus #251  6.350,3.296
CH N  9.646s 2023-03-25 09:29 Spinel #252  6.350,3.296
RO N  9.646s 2023-03-25 13:39 rimai #253  6.366,3.280
US N  9.646s 2023-03-27 04:47 ilus lol #254  6.350,3.296
FR N  9.646s 2023-04-05 11:26 Born2Win #255  6.350,3.296
SG Y  9.646s 2023-04-07 12:42 June #256  6.350,3.296
NO Y  9.646s 2023-04-09 07:50 deleted user #257  6.350,3.296
BG N  9.646s 2023-04-09 19:24 sa6oconev #258  6.350,3.296
US N  9.646s 2023-04-14 09:53 deleted user #259  6.333,3.313
AU Y  9.646s 2023-04-15 02:38 deleted user #260  6.350,3.296
IT N  9.646s 2023-04-15 15:50 V1rUs766 #261  6.350,3.296
DE Y  9.646s 2023-04-15 16:50 birdie #262  6.350,3.296
GB N  9.646s 2023-04-19 20:59 Llama_106 #263  6.350,3.296
HU N  9.646s 2023-04-25 17:51 FireDongo87 #264  6.350,3.296
BE N  9.646s 2023-05-01 17:25 Sithza. #265  6.350,3.296
AU Y  9.646s 2023-05-02 12:10 full boxed #266  6.350,3.296
US N  9.646s 2023-05-31 21:45 Pillow #267  6.350,3.296
GB N  9.646s 2023-08-04 18:02 Dyza is him #268  6.350,3.296
BE N  9.646s 2023-08-30 23:01 Deleted user #269  6.350,3.296
NL N  9.646s 2023-09-21 14:32 ๐Ÿ‡ทโ€‹๐Ÿ‡ชโ€‹๐Ÿ‡ฒโ€‹๐Ÿ‡จโ€‹๐Ÿ‡ทโ€‹ #270  6.350,3.296
FR N  9.646s 2023-09-21 16:47 ๐š๐™พ๐™ฒ๐™บ๐™ด๐šƒ #271  6.300,3.346
AZ N  9.646s 2026-05-22 17:21 tomp1k3 #272  6.350,3.296
DK N  9.647s 2023-02-27 14:33 Quit #273  6.350,3.297
GB N  9.663s 2023-02-05 10:50 rocket #274  6.366,3.297
DE N  9.663s 2023-02-06 13:58 babbel #275  6.366,3.297
GB N  9.663s 2023-02-08 21:58 Cyp #276  6.366,3.297
GB N  9.663s 2023-02-13 11:01 satyu #277  6.366,3.297
AU N  9.663s 2023-02-15 02:45 mag #278  6.366,3.297
IL N  9.663s 2023-02-17 10:28 Melted #279  6.366,3.297
BE N  9.663s 2023-02-20 15:56 X_OAless2 #280  6.366,3.297
FR N  9.663s 2023-02-20 16:08 Clemodjazz #281  6.366,3.297
US Y  9.663s 2023-02-23 15:54 jux #282  6.366,3.297
NL N  9.663s 2023-02-26 13:04 Oven Tuah #283  6.366,3.297
SE N  9.663s 2023-03-03 07:13 Catbourito #284  6.350,3.313
ID N  9.663s 2023-03-03 09:41 ndsjsxhshyxg2 #285  6.316,3.347
IE Y  9.663s 2023-03-04 03:37 kv_dollexo #286  6.366,3.297
NL Y  9.663s 2023-03-05 17:10 Lennart #287  6.366,3.297
AU N  9.663s 2023-03-12 16:10 scout #288  6.366,3.297
SE N  9.663s 2023-03-14 09:25 NL int3dtv #289  6.366,3.297
GB Y  9.663s 2023-03-15 15:05 Tom Flippy #290  6.366,3.297
FR N  9.663s 2023-03-19 17:31 Arsenito โถโ‚†โท #291  6.366,3.297
US Y  9.663s 2023-03-21 04:44 Dev #292  6.366,3.297
ES N  9.663s 2023-03-25 19:25 Stileche10 #293  6.350,3.313
AU N  9.663s 2023-03-29 08:30 fraser #294  6.366,3.297
BE Y  9.663s 2023-04-01 20:13 Halloman #295  6.366,3.297
AU Y  9.663s 2023-04-05 19:18 RapidElephant72 #296  6.366,3.297
US Y  9.663s 2023-04-08 17:35 Cosmic #297  6.300,3.363
NZ Y  9.663s 2023-04-10 02:29 dyllizard #298  6.366,3.297
PL N  9.663s 2023-04-15 12:19 Triple T #299  6.366,3.297
US Y  9.663s 2023-04-20 18:51 Blur #300  6.283,3.380
FR N  9.663s 2023-04-22 21:21 LeoXD #301  6.333,3.330
CA Y  9.663s 2023-04-23 19:54 kyiokas kitten #302  6.366,3.297
RO N  9.663s 2023-04-24 17:41 Fire #303  6.366,3.297
US N  9.663s 2023-04-27 14:03 ๐Ÿ‡ณ๐Ÿ‡ด๐Ÿ‡ณ๐Ÿ‡ด๐Ÿ‡ณ๐Ÿ‡ด #304  6.300,3.363
NL N  9.663s 2023-04-29 15:28 CoolMeez2 #305  6.366,3.297
PL N  9.663s 2023-05-01 17:01 S K T aka turtl #306  6.366,3.297
PL N  9.663s 2023-05-02 13:19 ballzX #307  6.366,3.297
DE N  9.663s 2023-05-31 18:26 GamingShade #308  6.366,3.297
RS N  9.663s 2023-06-06 15:37 Janko3524 #309  6.366,3.297
GB N  9.663s 2023-06-25 21:57 no name guy #310  6.366,3.297
BR N  9.663s 2023-09-15 12:50 Massat #311  6.366,3.297
DE N  9.663s 2023-10-04 19:09 steezy #312  6.333,3.330
FI N  9.663s 2023-10-28 15:38 Gkunkku164 #313  6.366,3.297
US N  9.663s 2023-10-29 01:37 BenExoRacer #314  6.350,3.313
GR N  9.663s 2023-11-29 12:26 Relayz #315  6.366,3.297
NL N  9.663s 2024-01-11 22:02 Mats45 #316  6.416,3.247
DE N  9.663s 2024-02-09 12:44 Mr Freaky๐Ÿ‘… #317  6.366,3.297
NO N  9.679s 2023-02-05 19:38 BEAN๐Ÿซ˜ #318  6.383,3.296
PL N  9.679s 2023-02-15 16:21 deleted user #319  6.383,3.296
IL N  9.679s 2023-02-19 10:13 skeleton #320  6.383,3.296
NO N  9.679s 2023-02-19 19:21 Tito #321  6.383,3.296
US Y  9.679s 2023-02-22 20:13 v7_waidoh #322  6.383,3.296
AQ Y  9.679s 2023-02-23 03:12 money #323  6.366,3.313
IT N  9.679s 2023-02-24 20:52 Fantasyi #324  6.383,3.296
US N  9.679s 2023-02-28 15:04 star #325  6.383,3.296
SI N  9.679s 2023-03-01 12:58 grassy reborn #326  6.333,3.346
BE N  9.679s 2023-03-06 06:38 Spoon #327  6.383,3.296
CA N  9.679s 2023-03-11 02:59 Spookz' Puppy :3 #328  6.383,3.296
AU N  9.679s 2023-03-15 11:24 Seahat_wonder #329  6.383,3.296
FR N  9.679s 2023-03-28 16:47 Audran #330  6.383,3.296
GB N  9.679s 2023-03-31 14:25 SnaXyx #331  6.383,3.296
FR N  9.679s 2023-04-05 14:03 dylandidi013 #332  6.383,3.296
GB N  9.679s 2023-04-07 12:22 judee #333  6.366,3.313
US Y  9.679s 2023-04-07 16:09 Jared_h1m #334  6.383,3.296
US Y  9.679s 2023-04-08 17:24 w oofydiah #335  6.383,3.296
NL N  9.679s 2023-04-09 13:14 deleted user #336  6.383,3.296
US N  9.679s 2023-04-10 08:34 Oasis #337  6.366,3.313
US Y  9.679s 2023-04-11 21:15 Freaky Tanner ๐Ÿ˜ #338  6.383,3.296
AU N  9.679s 2023-04-14 09:33 Unicornpuppy #339  6.383,3.296
US Y  9.679s 2023-04-17 00:47 Juperr #340  6.383,3.296
FR Y  9.679s 2023-04-18 14:31 Camilz08 #341  6.383,3.296
US Y  9.679s 2023-04-22 16:28 Worcol123 #342  6.383,3.296
DE N  9.679s 2023-04-29 16:12 Guest5832 #343  6.383,3.296
US Y  9.679s 2023-05-05 03:14 Roxy #344  6.383,3.296
PL N  9.679s 2023-05-14 18:24 Astrix #345  6.383,3.296
GB N  9.679s 2023-06-16 21:03 Crshed #346  6.383,3.296
JM N  9.679s 2023-07-13 15:49 GG op X #347  6.383,3.296
FI N  9.679s 2023-07-22 12:34 rob #348  6.350,3.329
US N  9.679s 2023-07-29 01:25 DoorDash #349  6.383,3.296
NL N  9.679s 2023-08-04 09:17 EXOFINN #350  6.366,3.313
GR N  9.679s 2023-08-06 08:11 GreenDaPotato #351  6.383,3.296
NO N  9.679s 2023-08-19 13:42 Baba grill #352  6.383,3.296
DE N  9.679s 2023-09-23 08:30 KL KloxinightTT #353  6.383,3.296
NL N  9.679s 2023-09-23 17:33 GrowingShrimp31 #354  6.383,3.296
AT N  9.679s 2024-07-28 16:50 washed spino #355  6.383,3.296
US N  9.679s 2026-06-04 18:59 Sunbad #356  6.400,3.279
UA N  9.679s 2026-06-12 12:01 Pauchara #357  6.350,3.329
NL N  9.679s 2026-08-06 09:55 Charlie kirk #358  6.416,3.263
FR N  9.680s 2023-02-13 20:07 Blujule #359  6.383,3.297
SE Y  9.680s 2023-02-15 20:30 Quandaledingle #360  6.400,3.280
US Y  9.694s 2023-03-02 23:17 kaboom #361  6.383,3.311
NL N  9.696s 2023-02-07 16:03 Jebollemoede #362  6.333,3.363
SI N  9.696s 2023-02-09 17:21 BweadLover #363  6.366,3.330
DK N  9.696s 2023-02-14 19:06 Madss #364  6.400,3.296
AU N  9.696s 2023-02-15 23:51 JackLikesMuffns #365  6.400,3.296
AU N  9.696s 2023-02-18 02:11 mage x #366  6.400,3.296
BE N  9.696s 2023-02-19 11:46 LiterallyLucas #367  6.316,3.380
SE N  9.696s 2023-02-19 20:16 Fuggebugge #368  6.366,3.330
NL N  9.696s 2023-02-22 21:56 deleted user #369  6.400,3.296
NL N  9.696s 2023-03-02 13:43 JuulisCool999 #370  6.400,3.296
LU N  9.696s 2023-03-03 20:57 Onno #371  6.400,3.296
US Y  9.696s 2023-03-03 23:54 kaboom #372  6.400,3.296
BG N  9.696s 2023-03-06 19:36 Georgi Iliev #373  6.400,3.296
US N  9.696s 2023-03-13 12:57 cold fr #374  6.400,3.296
SK N  9.696s 2023-03-28 00:18 Sam2 #375  6.400,3.296
DE Y  9.696s 2023-04-03 16:48 Mqurii #376  6.400,3.296
NL Y  9.696s 2023-04-05 14:02 JornPopcorn #377  6.400,3.296
IE Y  9.696s 2023-04-07 05:02 BIZZY #378  6.400,3.296
BE Y  9.696s 2023-04-07 19:05 Lennyboy #379  6.416,3.280
US N  9.696s 2023-04-10 17:18 Tracer #380  6.383,3.313
US Y  9.696s 2023-04-10 22:29 The Watcher #381  6.400,3.296
IT N  9.696s 2023-04-15 16:09 P4RXY #382  6.400,3.296
PL N  9.696s 2023-04-17 17:06 baller #383  6.400,3.296
US N  9.696s 2023-04-18 18:06 Saucy Dawsy #384  6.400,3.296
US N  9.696s 2023-04-19 23:09 Exocoll #385  6.400,3.296
CA N  9.696s 2023-04-20 19:21 Artemis #386  6.400,3.296
US Y  9.696s 2023-04-21 14:51 das #387  6.400,3.296
ID N  9.696s 2023-04-23 08:19 kaissarznalt #388  6.400,3.296
US Y  9.696s 2023-04-27 02:43 Mxsty #389  6.400,3.296
FI Y  9.696s 2023-04-30 13:34 ddosama #390  6.400,3.296
ES Y  9.696s 2023-05-01 02:34 Tarifosamu #391  6.400,3.296
FR Y  9.696s 2023-05-04 22:07 Mystic #392  6.400,3.296
DK N  9.696s 2023-05-04 23:06 LL #393  6.400,3.296
AU N  9.696s 2023-06-20 00:01 deleted user #394  6.400,3.296
AU N  9.696s 2023-06-23 04:42 jacob #395  6.400,3.296
AU N  9.696s 2023-07-01 02:56 halt #396  6.400,3.296
AM N  9.696s 2023-07-02 16:59 Guest7621 #397  6.333,3.363
SG N  9.696s 2023-08-13 06:18 someonealt #398  6.333,3.363
GB N  9.696s 2023-08-15 14:54 ๐Ÿ๐Ÿ”ฅ๐•ฟ๐–๐–Š ๐–Œ๐–”๐–†๐–™๐Ÿ”ฅ๐Ÿ #399  6.400,3.296
ES N  9.696s 2023-11-11 19:51 ๐–’๐–๐–—๐–•๐–†๐–“ #400  6.383,3.313
SI N  9.696s 2024-01-09 18:41 vale9 #401  6.400,3.296
US N  9.696s 2024-03-11 07:02 Tubby #402  6.366,3.330
LV N  9.696s 2025-02-05 14:07 Echo #403  6.316,3.380
DE N  9.696s 2026-01-07 18:21 ue_ProfLexus #404  6.383,3.313
US N  9.696s 2026-01-21 05:29 kaboom #405  6.333,3.363
GB N  9.696s 2026-05-08 18:41 qnavu #406  6.316,3.380
NL Y  9.710s 2023-04-21 17:23 seppiono #407  6.316,3.394
AU N  9.713s 2023-02-05 21:28 disc #408  6.416,3.297
AU N  9.713s 2023-02-06 05:18 ExoJester #409  6.333,3.380
NL N  9.713s 2023-02-07 20:04 Misty #410  6.416,3.297
PL N  9.713s 2023-02-12 07:59 Kopelat OG #411  6.350,3.363
TR N  9.713s 2023-02-13 14:15 Ahmet Ahmet #412  6.416,3.297
AU Y  9.713s 2023-02-16 21:45 Shaka #413  6.400,3.313
RO N  9.713s 2023-02-20 11:14 Deivid 2 #414  6.400,3.313
SE Y  9.713s 2023-02-20 16:05 Fille #415  6.416,3.297
US Y  9.713s 2023-02-22 00:56 B DOG #416  6.416,3.297
GB N  9.713s 2023-02-23 11:17 Everest #417  6.416,3.297
US N  9.713s 2023-02-24 01:51 hbesok #418  6.333,3.380
NL N  9.713s 2023-02-26 20:52 The big besas #419  6.416,3.297
CA N  9.713s 2023-03-01 02:55 oSolo_K1ll #420  6.416,3.297
DK N  9.713s 2023-03-02 06:48 Tactical #421  6.416,3.297
US Y  9.713s 2023-03-03 02:17 spikecar #422  6.416,3.297
US N  9.713s 2023-03-03 19:46 Vatoisnotcool #423  6.416,3.297
US Y  9.713s 2023-03-07 05:36 o_o #424  6.416,3.297
NL N  9.713s 2023-03-08 07:23 clanbro #425  6.416,3.297
US Y  9.713s 2023-03-08 22:19 Toasty #426  6.416,3.297
FR Y  9.713s 2023-03-11 05:17 deleted user #427  6.416,3.297
US N  9.713s 2023-03-13 18:51 Scarrzy #428  6.416,3.297
US N  9.713s 2023-03-14 11:16 sin #429  6.416,3.297
FR Y  9.713s 2023-03-17 12:22 Flx77 #430  6.316,3.397
BY Y  9.713s 2023-03-19 14:30 LushAttitude58 #431  6.383,3.330
DK N  9.713s 2023-03-23 19:24 Chacha2 #432  6.350,3.363
GB N  9.713s 2023-03-25 12:54 Birdle #433  6.416,3.297
FR N  9.713s 2023-03-25 18:54 Stormyz #434  6.416,3.297
BE Y  9.713s 2023-03-25 21:14 Jap #435  6.416,3.297
DE N  9.713s 2023-03-31 11:43 Prism #436  6.333,3.380
BE N  9.713s 2023-03-31 19:01 Miffy 123 #437  6.416,3.297
NL N  9.713s 2023-03-31 20:05 jesse #438  6.416,3.297
FR Y  9.713s 2023-04-05 18:39 ใƒซใƒผใ‚ซใ‚น #439  6.416,3.297
BY N  9.713s 2023-04-09 15:24 Clad #440  6.350,3.363
PL N  9.713s 2023-04-15 07:15 msstrunio4 #441  6.416,3.297
BG N  9.713s 2023-04-18 11:09 icy #442  6.416,3.297
NL N  9.713s 2023-04-23 10:24 jAmAl33 #443  6.416,3.297
AU N  9.713s 2023-04-26 15:01 yolotaquarious #444  6.416,3.297
EG Y  9.713s 2023-04-27 21:41 mxrwan #445  6.416,3.297
IL N  9.713s 2023-04-30 18:53 24katelyn #446  6.350,3.363
FR N  9.713s 2023-05-01 17:27 squicz #447  6.400,3.313
GB Y  9.713s 2023-05-02 16:27 What is my name #448  6.416,3.297
NL N  9.713s 2023-05-17 16:18 Flowed #449  6.416,3.297
BA N  9.713s 2023-05-21 10:17 juanjan boy #450  6.416,3.297
DE N  9.713s 2023-05-30 11:49 Guest4323 #451  6.416,3.297
AU N  9.713s 2023-06-15 12:03 Speedrunner #452  6.366,3.347
EG N  9.713s 2023-08-03 20:01 boing #453  6.383,3.330
CA N  9.713s 2023-08-25 20:59 Zack #454  6.416,3.297
NL N  9.713s 2023-11-19 19:22 Caylen135 #455  6.416,3.297
DE N  9.713s 2023-11-25 11:46 Torak๐Ÿคใƒ“ใƒซใ‚ฏใƒณ #456  6.416,3.297
CZ N  9.713s 2024-07-10 17:30 52sdk #457  6.433,3.280
US N  9.713s 2024-07-28 05:31 ๅ‚ไธ‚ใ„’ๅฐบใ„–ใ„– #458  6.450,3.263
FR N  9.713s 2024-10-24 15:00 โ˜ƒ| ๐™ท๐šข๐š๐š˜ #459  6.333,3.380
IT N  9.714s 2023-05-05 18:49 Skittles ๐Ÿ‘ #460  6.416,3.298
GB N  9.728s 2026-04-25 08:45 ๐‘๐จ๐ฆ๐ณ๐ณ #461  6.350,3.378
US N  9.729s 2023-02-05 16:45 Solar #462  6.433,3.296
NL N  9.729s 2023-02-08 13:31 deleted user #463  6.433,3.296
BG N  9.729s 2023-02-09 16:31 1K0_BG #464  6.433,3.296
SE N  9.729s 2023-02-12 15:52 Guest8463 #465  6.433,3.296
BE Y  9.729s 2023-02-15 18:13 deleted user #466  6.433,3.296
FR N  9.729s 2023-02-16 09:47 Vloxyyy #467  6.433,3.296
CA N  9.729s 2023-02-17 23:40 Exo Sky #468  6.433,3.296
NL N  9.729s 2023-02-18 08:06 ReLight #469  6.433,3.296
AW Y  9.729s 2023-02-20 17:35 CaydenFarro #470  6.433,3.296
SE Y  9.729s 2023-02-21 15:17 J Sondre alt #471  6.433,3.296
SE Y  9.729s 2023-02-21 20:59 ExoMilo #472  6.433,3.296
US N  9.729s 2023-02-22 21:51 -astro- #473  6.433,3.296
GB N  9.729s 2023-02-23 16:49 icey #474  6.433,3.296
PL Y  9.729s 2023-02-23 20:04 FierkKitten231 #475  6.433,3.296
NL N  9.729s 2023-02-24 15:06 Tx_ #476  6.433,3.296
AQ Y  9.729s 2023-02-26 19:26 LOTUS #477  6.433,3.296
IL N  9.729s 2023-02-28 09:51 ใ‚ใŸใ•Sha๐Ÿฉธ #478  6.433,3.296
AU Y  9.729s 2023-02-28 12:42 zueary #479  6.416,3.313
US N  9.729s 2023-02-28 20:50 Guest0001 #480  6.433,3.296
EE N  9.729s 2023-03-01 14:11 Hxrvser #481  6.433,3.296
NL N  9.729s 2023-03-02 21:50 DutchKing #482  6.433,3.296
BA Y  9.729s 2023-03-07 12:33 gruja #483  6.433,3.296
JP Y  9.729s 2023-03-09 08:49 killerkun... #484  6.433,3.296
RO N  9.729s 2023-03-09 16:02 bot #485  6.433,3.296
IT Y  9.729s 2023-03-11 18:51 Serz #486  6.433,3.296
FR Y  9.729s 2023-03-12 18:55 UwU Boy #487  6.433,3.296
FI Y  9.729s 2023-03-12 20:34 mighty #488  6.383,3.346
FI Y  9.729s 2023-03-18 11:05 Miku #489  6.366,3.363
US N  9.729s 2023-03-30 01:44 Lark #490  6.433,3.296
NL Y  9.729s 2023-04-05 14:51 Jxpie #491  6.433,3.296
US N  9.729s 2023-04-08 06:07 idk #492  6.433,3.296
NO Y  9.729s 2023-04-09 15:46 Sigurd๐Ÿ›ด๐Ÿพ(icy) #493  6.433,3.296
AU Y  9.729s 2023-04-17 12:44 Beatenbyawoman #494  6.433,3.296
HU N  9.729s 2023-04-18 10:56 unknownphantom #495  6.433,3.296
GB N  9.729s 2023-04-20 07:45 ftqx #496  6.433,3.296
US N  9.729s 2023-04-21 23:00 wallie #497  6.366,3.363
PL Y  9.729s 2023-04-25 11:58 Ex3 #498  6.433,3.296
BR Y  9.729s 2023-04-28 19:26 slukq #499  6.383,3.346
NL Y  9.729s 2023-04-30 13:06 BL!Simon!NL #500  6.433,3.296
LT Y  9.729s 2023-05-02 17:46 topinambas #501  6.433,3.296
US Y  9.729s 2023-05-04 12:31 dwamps #502  6.350,3.379
BG N  9.729s 2023-05-04 15:57 Fabio #503  6.433,3.296
CA N  9.729s 2023-06-22 01:02 ๐“ก๐“ธ๐“ฌ๐“ด๐”‚ #504  6.433,3.296
US N  9.729s 2023-09-17 18:54 christano ronaldo #505  6.433,3.296
SI N  9.729s 2024-01-04 17:15 majcek210 #506  6.433,3.296
NL N  9.729s 2024-03-19 11:27 ไธ€Bugo69ไธ€ #507  6.400,3.329
GB N  9.729s 2024-04-27 02:55 AxCeRiSs๐Ÿ˜พ #508  6.350,3.379
US N  9.729s 2024-07-26 20:16 snowy #509  6.383,3.346
SA N  9.729s 2025-03-21 19:09 rr #510  6.466,3.263
SE N  9.729s 2025-06-23 19:51 korkadfiskmas27 #511  6.433,3.296
FR N  9.729s 2026-01-28 16:22 Fribout #512  6.433,3.296
HU N  9.729s 2026-05-18 17:03 Astrxa #513  6.383,3.346
DE N  9.730s 2023-02-13 19:44 Polar #514  6.400,3.330
FI Y  9.730s 2023-03-08 14:05 J3RRY #515  6.450,3.280
HU N  9.730s 2024-01-12 19:18 Orgasify Junior #516  6.450,3.280
AX N  9.730s 2024-10-11 10:44 field #517  6.333,3.397
RO N  9.730s 2025-03-05 02:08 kaboom #518  6.450,3.280
US N  9.731s 2023-02-06 20:48 nexus #519  6.350,3.381
US N  9.731s 2023-03-15 20:12 exobruhdude tt #520  6.366,3.365
CH N  9.731s 2023-04-29 17:22 kaboom #521  6.350,3.381
DK N  9.743s 2023-02-23 11:27 FExO #522  6.350,3.393
NL N  9.746s 2023-02-05 16:40 Mats45 #523  6.433,3.313
PS N  9.746s 2023-02-08 08:23 im not eleven #524  6.450,3.296
US N  9.746s 2023-02-10 04:14 ConnorHende #525  6.450,3.296
FR N  9.746s 2023-02-10 14:48 GUIP4PRO #526  6.466,3.280
GB N  9.746s 2023-02-10 20:41 God #527  6.450,3.296
PH N  9.746s 2023-02-11 04:34 ep1c #528  6.383,3.363
VN N  9.746s 2023-02-11 15:32 deleted user #529  6.450,3.296
CA Y  9.746s 2023-02-12 22:54 pepsi #530  6.450,3.296
NL N  9.746s 2023-02-17 20:14 FlyxY #531  6.433,3.313
US N  9.746s 2023-02-18 07:45 ItsAiden #532  6.383,3.363
GB N  9.746s 2023-02-19 11:26 KTC_Sciz #533  6.450,3.296
US N  9.746s 2023-02-19 22:21 bord2r on insta #534  6.450,3.296
FR Y  9.746s 2023-02-19 22:52 Merialemagnifiq #535  6.450,3.296
US N  9.746s 2023-02-20 16:54 Keeg #536  6.450,3.296
SK Y  9.746s 2023-02-24 18:30 Tomix_121 #537  6.450,3.296
FI Y  9.746s 2023-02-24 19:03 ilttu1 #538  6.450,3.296
FR Y  9.746s 2023-02-28 12:24 Evan_2_Orleans_ #539  6.450,3.296
TR N  9.746s 2023-03-03 22:28 Anti Ahmet #540  6.450,3.296
NL N  9.746s 2023-03-04 12:21 RamyEXO #541  6.450,3.296
US Y  9.746s 2023-03-05 00:06 Tux is a w jr #542  6.400,3.346
US N  9.746s 2023-03-05 03:13 Guest2745 #543  6.383,3.363
CA N  9.746s 2023-03-12 22:00 lry #544  6.366,3.380
SE N  9.746s 2023-03-16 16:42 alvinnnnnnn #545  6.450,3.296
SE Y  9.746s 2023-03-19 17:10 J Rista #546  6.383,3.363
NO Y  9.746s 2023-03-23 19:27 Flippip #547  6.450,3.296
AU N  9.746s 2023-03-26 00:30 tes alt #548  6.450,3.296
CA Y  9.746s 2023-03-28 00:08 the69er #549  6.450,3.296
US Y  9.746s 2023-03-29 17:09 Aspect #550  6.416,3.330
NL N  9.746s 2023-03-30 15:30 CUBE #551  6.450,3.296
BG N  9.746s 2023-04-03 16:25 Ivo5PF #552  6.383,3.363
FR N  9.746s 2023-04-06 15:57 Drakstar #553  6.450,3.296
NL N  9.746s 2023-04-07 05:36 trepzz #554  6.450,3.296
SE Y  9.746s 2023-04-07 10:58 Milton #555  6.450,3.296
SK N  9.746s 2023-04-08 16:30 Kanye West #556  6.450,3.296
TR N  9.746s 2023-04-10 02:23 RecycleProject #557  6.450,3.296
NL Y  9.746s 2023-04-10 16:58 Jasperitootje #558  6.450,3.296
NZ Y  9.746s 2023-04-11 02:39 B0yd #559  6.433,3.313
NL Y  9.746s 2023-04-15 11:34 NG48 #560  6.450,3.296
US N  9.746s 2023-04-21 16:29 Beni #561  6.416,3.330
FR Y  9.746s 2023-04-27 17:21 JustGas #562  6.450,3.296
FI N  9.746s 2023-04-28 06:13 Guest8817 #563  6.383,3.363
AU N  9.746s 2023-04-28 17:28 Endless #564  6.433,3.313
PT Y  9.746s 2023-04-29 21:12 TTK Johnygamer PT #565  6.450,3.296
US Y  9.746s 2023-04-30 21:30 John Johnson #566  6.450,3.296
DE N  9.746s 2023-07-02 19:10 โ˜†๐‘ท๐’–๐’“๐’‘๐’๐’†โ˜† #567  6.450,3.296
AQ N  9.746s 2023-07-09 22:23 kyler is washed #568  6.383,3.363
US N  9.746s 2023-07-23 22:31 not_nolan #569  6.416,3.330
AU N  9.746s 2023-07-29 03:54 cwiit #570  6.383,3.363
US N  9.746s 2023-08-21 16:19 aquatichotpark #571  6.450,3.296
NO N  9.746s 2023-09-16 13:05 BigDinosaur #572  6.383,3.363
RO N  9.746s 2023-10-30 14:41 Señor Mayoné #573  6.400,3.346
PH N  9.746s 2024-02-25 10:18 :33 #574  6.433,3.313
UA N  9.746s 2024-11-29 02:55 Guest666 #575  6.466,3.280
LT N  9.746s 2026-01-03 16:17 VelocityX #576  6.466,3.280
RU N  9.746s 2026-04-29 10:03 Guest7227 #577  6.416,3.330
BE Y  9.747s 2023-04-03 10:58 Snooze #578  6.450,3.297
SE N  9.747s 2023-04-09 05:53 Im not best #579  6.366,3.381
US N  9.747s 2024-01-08 17:07 willows fan #580  6.433,3.314
IE N  9.762s 2023-10-28 20:10 Evanirwin2020 #581  6.333,3.429
TR N  9.763s 2023-02-07 21:23 Ahmet #582  6.466,3.297
AU N  9.763s 2023-02-07 22:54 Jack #583  6.466,3.297
NZ N  9.763s 2023-02-11 06:32 NM-No Mercy #584  6.466,3.297
DE N  9.763s 2023-02-11 11:05 edonit #585  6.433,3.330
FR Y  9.763s 2023-02-13 10:08 LittleLuLu #586  6.466,3.297
EE Y  9.763s 2023-02-13 16:00 TobLiK #587  6.450,3.313
RO Y  9.763s 2023-02-18 11:15 dede70 #588  6.466,3.297
RO N  9.763s 2023-02-20 17:44 Ve77o #589  6.466,3.297
HK N  9.763s 2023-02-22 05:06 RunToFreeFall #590  6.466,3.297
FI N  9.763s 2023-02-23 17:16 Jonttutonttu #591  6.350,3.413
NL N  9.763s 2023-02-24 11:23 BurningPotency8 #592  6.466,3.297
GB N  9.763s 2023-02-24 17:07 morph #593  6.466,3.297
DK N  9.763s 2023-02-25 14:34 ChaCha #594  6.383,3.380
CA Y  9.763s 2023-03-02 23:35 Waffy #595  6.466,3.297
AU Y  9.763s 2023-03-03 03:33 Durden #596  6.400,3.363
US N  9.763s 2023-03-05 04:35 teq #597  6.466,3.297
DK Y  9.763s 2023-03-07 14:37 Author #598  6.466,3.297
CA N  9.763s 2023-03-12 21:10 GG ASPECT X #599  6.416,3.347
HU Y  9.763s 2023-03-26 09:00 raqxtz #600  6.400,3.363
GB Y  9.763s 2023-03-26 09:16 RyZe #601  6.466,3.297
CZ Y  9.763s 2023-03-30 13:26 Dankos #602  6.483,3.280
NL Y  9.763s 2023-04-08 22:54 yeahboy_exo #603  6.366,3.397
US Y  9.763s 2023-04-09 18:06 Alex Solos #604  6.466,3.297
US Y  9.763s 2023-04-09 21:47 Goobygang #605  6.450,3.313
US Y  9.763s 2023-04-14 03:03 Jasontehoctopus #606  6.466,3.297
PT Y  9.763s 2023-04-28 08:57 BrunoAzevedo99 #607  6.466,3.297
TN Y  9.763s 2023-05-04 00:06 Bahaa #608  6.483,3.280
BR N  9.763s 2023-06-22 16:24 saint #609  6.466,3.297
CZ N  9.763s 2023-07-03 22:59 Vojtax #610  6.466,3.297
FR N  9.763s 2023-07-13 20:33 Cricks #611  6.383,3.380
SE N  9.763s 2024-01-09 20:50 K1tty #612  6.366,3.397
FI N  9.763s 2024-03-31 12:31 Guest 5290 #613  6.450,3.313
AU N  9.763s 2025-02-16 00:10 ๐™ป๐šŠ ๐™ต๐š•๐šŠ๐š–๐šŽ #614  6.466,3.297
SE N  9.764s 2023-02-08 15:35 Sweden #615  6.466,3.298
IT N  9.764s 2023-02-14 03:43 Vrrx #616  6.466,3.298
NL Y  9.764s 2023-02-15 20:35 Quint #617  6.383,3.381
AU Y  9.764s 2023-03-13 23:42 DailyClash #618  6.450,3.314
AU Y  9.776s 2023-03-08 19:26 crackheadBrush #619  6.383,3.393
US N  9.779s 2023-02-05 20:50 minimus #620  6.466,3.313
MX N  9.779s 2023-02-06 07:47 PapotaV #621  6.433,3.346
AU N  9.779s 2023-02-07 02:20 stoke #622  6.416,3.363
SE N  9.779s 2023-02-09 07:02 FireMaster #623  6.483,3.296
NZ N  9.779s 2023-02-11 15:37 Yumic #624  6.483,3.296
FI N  9.779s 2023-02-13 12:35 EXOdaddy #625  6.483,3.296
AU N  9.779s 2023-02-14 13:25 gotouchgrass #626  6.483,3.296
US Y  9.779s 2023-02-15 02:38 Gurtpz #627  6.483,3.296
DE N  9.779s 2023-02-15 16:31 Guest5832 #628  6.450,3.329
NL N  9.779s 2023-02-15 18:01 exoflash #629  6.483,3.296
US N  9.779s 2023-02-15 20:50 legit #630  6.433,3.346
BE N  9.779s 2023-02-16 15:02 Toxic #631  6.466,3.313
NL N  9.779s 2023-02-17 18:00 Suffix #632  6.483,3.296
US Y  9.779s 2023-02-19 06:16 xohl #633  6.400,3.379
KZ N  9.779s 2023-02-19 15:22 SusAmongus100 #634  6.483,3.296
DE N  9.779s 2023-02-19 22:36 x_x #635  6.483,3.296
AU Y  9.779s 2023-02-20 00:23 SC30 #636  6.483,3.296
CA N  9.779s 2023-02-24 00:42 Iso #637  6.483,3.296
US N  9.779s 2023-02-27 15:23 Jman26m #638  6.450,3.329
PT N  9.779s 2023-03-02 13:41 sunny #639  6.483,3.296
PH N  9.779s 2023-03-03 09:50 20KNinja #640  6.450,3.329
FR Y  9.779s 2023-03-03 20:54 Icethweak #641  6.483,3.296
DK N  9.779s 2023-03-03 21:19 Roar #642  6.483,3.296
BG N  9.779s 2023-03-06 10:06 nasko_534 #643  6.416,3.363
NO N  9.779s 2023-03-11 12:53 Aimbotsex #644  6.466,3.313
BE N  9.779s 2023-03-14 11:55 m1sty #645  6.483,3.296
US Y  9.779s 2023-03-14 20:09 Hoover #646  6.416,3.363
RO N  9.779s 2023-03-16 15:06 exo eye #647  6.483,3.296
SE Y  9.779s 2023-03-16 17:50 ๐”ฌ๐”ฏ๐”ฆ๐”ฌ๐”ซ #648  6.400,3.379
CA Y  9.779s 2023-03-17 21:17 j1prada #649  6.483,3.296
PL Y  9.779s 2023-03-19 17:33 Bacexo #650  6.433,3.346
NL Y  9.779s 2023-03-21 17:55 ISAN | spix ใƒ„ #651  6.483,3.296
NL N  9.779s 2023-03-25 12:29 Guest6833 #652  6.483,3.296
GB Y  9.779s 2023-03-28 19:53 Loxkz #653  6.483,3.296
AU Y  9.779s 2023-04-02 01:56 Gymdragon #654  6.383,3.396
US Y  9.779s 2023-04-07 19:01 Velocity #655  6.483,3.296
PL N  9.779s 2023-04-07 19:23 Sypard #656  6.416,3.363
IS Y  9.779s 2023-04-08 20:21 Enito #657  6.433,3.346
NL Y  9.779s 2023-04-13 08:00 Kaas_Poeder #658  6.450,3.329
SE Y  9.779s 2023-04-13 09:10 PL Spexy #659  6.416,3.363
FR Y  9.779s 2023-04-15 09:04 Drakstar #660  6.483,3.296
FI Y  9.779s 2023-04-20 09:03 Mietin elämää ja nauran sille #661  6.483,3.296
NZ Y  9.779s 2023-04-23 08:50 ItzPynix #662  6.483,3.296
AU N  9.779s 2023-04-27 19:26 Imurdadngl #663  6.483,3.296
KR Y  9.779s 2023-05-01 07:15 pyojung018 #664  6.483,3.296
FI N  9.779s 2023-06-10 18:14 Vaku #665  6.483,3.296
US N  9.779s 2023-08-16 04:16 mwezi #666  6.483,3.296
DE N  9.779s 2023-08-20 12:28 eleven #667  6.450,3.329
US N  9.779s 2023-09-27 00:11 Blau #668  6.450,3.329
NL N  9.779s 2024-05-01 10:19 Guest9763 #669  6.400,3.379
FR N  9.779s 2024-08-18 20:45 ‎ โ˜†Born2Dripโ˜† #670  6.350,3.429
FR N  9.779s 2025-07-02 15:14 ๐Ÿ…š๐Ÿ…๐Ÿ…œ๐Ÿ…ž๐Ÿ…ค๐Ÿ…›๐Ÿ…ž๐Ÿ…ง #671  6.366,3.413
US N  9.779s 2026-01-29 19:38 3X0 #672  6.483,3.296
US N  9.779s 2026-08-23 20:13 Bbcbrycen #673  6.500,3.279
US Y  9.780s 2023-02-17 17:29 bind #674  6.466,3.314
TN N  9.780s 2023-02-27 11:32 Ans #675  6.483,3.297
US Y  9.780s 2023-03-03 14:35 smurf xd #676  6.483,3.297
FI N  9.780s 2023-03-13 18:01 PatuR10 #677  6.466,3.314
FI N  9.780s 2023-08-21 18:05 Demon #678  6.366,3.414
GB N  9.796s 2023-02-05 10:07 Acez #679  6.416,3.380
US N  9.796s 2023-02-05 13:24 zsta_amaz #680  6.433,3.363
SI N  9.796s 2023-02-05 13:52 Neyxium #681  6.466,3.330
US N  9.796s 2023-02-05 18:07 Nate0mate0 #682  6.483,3.313
US N  9.796s 2023-02-10 17:12 Z_xeph #683  6.516,3.280
FI N  9.796s 2023-02-15 20:42 Guest5630 #684  6.483,3.313
DE N  9.796s 2023-02-16 11:51 VersiPX #685  6.483,3.313
NO N  9.796s 2023-02-16 16:36 CuteShoe84 #686  6.500,3.296
BE Y  9.796s 2023-02-18 11:37 SXiyadTT #687  6.450,3.346
FR Y  9.796s 2023-02-20 11:58 Moncef #688  6.466,3.330
RO Y  9.796s 2023-02-21 19:04 ImagineBeingBad #689  6.450,3.346
CH N  9.796s 2023-02-22 07:58 Giani #690  6.500,3.296
US Y  9.796s 2023-02-23 13:48 lucass #691  6.416,3.380
PH N  9.796s 2023-02-24 12:14 deleted user #692  6.450,3.346
NL N  9.796s 2023-02-24 18:27 83011 #693  6.500,3.296
IT N  9.796s 2023-02-26 10:48 deleted user #694  6.500,3.296
FR N  9.796s 2023-03-01 21:08 TheKilzator #695  6.450,3.346
DE N  9.796s 2023-03-02 07:23 D3M0N #696  6.416,3.380
AU Y  9.796s 2023-03-03 22:17 Revenge #697  6.500,3.296
IL Y  9.796s 2023-03-04 19:46 Tinoki3 #698  6.500,3.296
FR Y  9.796s 2023-03-07 12:33 D๐–—ipp๐ฒ๐”ธ๐–—iใƒ„ #699  6.433,3.363
US Y  9.796s 2023-03-09 22:12 bread #700  6.500,3.296
NL N  9.796s 2023-03-10 19:22 kian #701  6.450,3.346
US Y  9.796s 2023-03-16 13:53 Banana Guy #702  6.500,3.296
BG N  9.796s 2023-03-16 20:59 Dan203ska #703  6.433,3.363
SG N  9.796s 2023-03-19 12:19 sexoracer #704  6.483,3.313
US N  9.796s 2023-03-24 19:13 RageMonkey12 #705  6.416,3.380
FI N  9.796s 2023-03-27 17:33 Erkka66 #706  6.500,3.296
NO Y  9.796s 2023-04-08 20:06 Opptatt #707  6.500,3.296
FR Y  9.796s 2023-04-18 18:03 Niro #708  6.450,3.346
ID Y  9.796s 2023-04-26 21:46 Guest9469 #709  6.400,3.396
US N  9.796s 2023-04-30 20:16 Kemphynx #710  6.450,3.346
BE N  9.796s 2023-05-03 08:08 ItsXeyz #711  6.400,3.396
DE N  9.796s 2023-05-05 21:05 Guest3404 #712  6.500,3.296
NL N  9.796s 2023-05-18 09:11 PuliceneZebra57 #713  6.500,3.296
FI N  9.796s 2023-05-27 14:48 Kierzant5 #714  6.500,3.296
NL N  9.796s 2023-07-11 05:32 Lard #715  6.400,3.396
US N  9.796s 2023-08-27 01:24 Exodemon #716  6.383,3.413
US N  9.796s 2023-11-14 02:20 StarredEngineer #717  6.433,3.363
FR N  9.796s 2024-01-15 19:10 Trix Prod #718  6.483,3.313
FR N  9.796s 2024-06-03 09:34 deleted user #719  6.483,3.313
DE N  9.796s 2024-07-25 08:30 Adrian #720  6.466,3.330
FR N  9.796s 2024-08-17 17:48 Guest6748 #721  6.400,3.396
IT N  9.796s 2025-04-04 20:55 cqbi #722  6.500,3.296
BG N  9.796s 2026-01-14 09:16 Sunny:D #723  6.400,3.396
US N  9.797s 2023-02-21 13:57 Theonewhoknocks #724  6.400,3.397
MD N  9.797s 2023-03-21 19:06 Dragonic #725  6.483,3.314
FR Y  9.797s 2023-03-24 07:22 Sola #726  6.500,3.297
CA Y  9.797s 2023-04-17 19:42 2FPSGucci #727  6.500,3.297
CH Y  9.797s 2023-04-28 21:28 Tomichat #728  6.450,3.347
NO N  9.810s 2023-03-17 10:42 Benjy_gamer #729  6.416,3.394
HU N  9.810s 2023-04-07 13:56 ImADoritos #730  6.416,3.394
SE N  9.810s 2023-05-03 18:42 Guest1606 #731  6.416,3.394
US N  9.810s 2024-04-17 14:54 Guest1170 #732  6.400,3.410
US N  9.811s 2023-02-13 16:34 exotyler #733  6.483,3.328
SE N  9.813s 2023-02-05 13:43 AggZel 2 #734  6.400,3.413
US N  9.813s 2023-02-05 18:40 Guest4338 #735  6.450,3.363
FR N  9.813s 2023-02-05 21:47 collinTeam #736  6.433,3.380
US N  9.813s 2023-02-06 04:46 bamhurger #737  6.433,3.380
BE N  9.813s 2023-02-07 18:33 Landerito #738  6.516,3.297
FR N  9.813s 2023-02-08 12:47 Tintinb08 #739  6.466,3.347
NL N  9.813s 2023-02-09 09:59 tuah #740  6.433,3.380
IT N  9.813s 2023-02-09 13:27 Not_Hector #741  6.450,3.363
NL N  9.813s 2023-02-11 12:46 Poepje #742  6.450,3.363
CA N  9.813s 2023-02-11 16:42 Kienen #743  6.483,3.330
CZ N  9.813s 2023-02-12 14:49 Guest2622 #744  6.433,3.380
BN N  9.813s 2023-02-13 12:46 Steph Curry #745  6.466,3.347
EG Y  9.813s 2023-02-13 17:58 blaze. acc #746  6.516,3.297
IT N  9.813s 2023-02-14 10:27 Guest4172 #747  6.466,3.347
US N  9.813s 2023-02-20 18:58 mav #748  6.450,3.363
FR Y  9.813s 2023-02-21 08:21 Enikx #749  6.516,3.297
NZ N  9.813s 2023-02-22 10:05 Blob #750  6.516,3.297
DE Y  9.813s 2023-02-22 12:24 Red Man #751  6.433,3.380
GE N  9.813s 2023-02-23 08:24 kutu #752  6.450,3.363
BE Y  9.813s 2023-02-25 12:31 La kaka #753  6.416,3.397
US N  9.813s 2023-02-27 03:36 I am bad #754  6.450,3.363
SE N  9.813s 2023-02-27 11:41 Force #755  6.516,3.297
US Y  9.813s 2023-03-06 11:03 Iabsolutlysuck #756  6.516,3.297
DE N  9.813s 2023-03-08 11:56 YY #757  6.500,3.313
SI N  9.813s 2023-03-08 12:09 hupo ๐ŸŒ #758  6.516,3.297
US N  9.813s 2023-03-08 14:10 Gizmo #759  6.433,3.380
AT Y  9.813s 2023-03-09 19:10 oli #760  6.516,3.297
NL Y  9.813s 2023-03-14 20:44 ExoJuul #761  6.433,3.380
DK Y  9.813s 2023-03-16 20:46 Ronaldo better #762  6.433,3.380
FI Y  9.813s 2023-03-17 07:32 teemugamer #763  6.416,3.397
DK Y  9.813s 2023-03-22 06:35 Guest9501 #764  6.516,3.297
US Y  9.813s 2023-03-22 16:46 The Watcher Alt #765  6.450,3.363
BE N  9.813s 2023-04-01 14:21 IrregularBuffalo #766  6.433,3.380
DE N  9.813s 2023-04-05 15:57 deleted user #767  6.516,3.297
FR N  9.813s 2023-04-12 10:07 Slampi #768  6.433,3.380
RO N  9.813s 2023-04-15 15:39 Razvyxxx1 #769  6.516,3.297
CO N  9.813s 2023-04-21 19:29 platanat #770  6.516,3.297
AU N  9.813s 2023-05-02 04:03 FazeJayne #771  6.516,3.297
CA N  9.813s 2023-05-06 21:40 dom #772  6.400,3.413
NO N  9.813s 2023-07-06 17:13 EIRIpro #773  6.433,3.380
DE N  9.813s 2024-02-16 22:14 lexonfire #774  6.433,3.380
DE N  9.813s 2024-09-16 14:55 NEIN_SMO #775  6.433,3.380
NL N  9.813s 2025-02-22 09:00 Xiaomi 15 Ultra #776  6.433,3.380
FR N  9.813s 2025-03-09 17:38 VoidyCat #777  6.450,3.363
US N  9.813s 2025-05-04 18:33 Achrotone #778  6.466,3.347
US N  9.814s 2023-02-06 20:21 __Yeat__ #779  6.433,3.381
US Y  9.814s 2023-04-24 18:04 PrepMilk #780  6.433,3.381
US N  9.814s 2024-01-09 21:52 แƒงแ‚ฎแƒนแƒแ‚ต2100๐Ÿคก #781  6.416,3.398
GB Y  9.826s 2023-04-04 19:31 quit ๐Ÿ‘น #782  6.433,3.393
CA N  9.827s 2023-04-21 02:18 nytb345 #783  6.433,3.394
PL N  9.829s 2023-02-05 13:15 Dziurwa #784  6.433,3.396
IE N  9.829s 2023-02-05 17:48 Whizz kiddd #785  6.466,3.363
CA N  9.829s 2023-02-08 00:43 Yuto #786  6.533,3.296
DK N  9.829s 2023-02-08 15:45 Davv #787  6.433,3.396
FR N  9.829s 2023-02-10 20:03 Gododishes #788  6.550,3.279
US N  9.829s 2023-02-11 16:54 Flood #789  6.466,3.363
IE Y  9.829s 2023-02-13 03:40 whiplash #790  6.450,3.379
NL Y  9.829s 2023-02-13 09:59 Prittic #791  6.450,3.379
GB Y  9.829s 2023-02-13 22:04 Feliz #792  6.450,3.379
NL Y  9.829s 2023-02-15 14:13 KLMN #793  6.533,3.296
AU N  9.829s 2023-02-17 13:50 vamp #794  6.466,3.363
AQ Y  9.829s 2023-02-21 08:21 Ghostz ๐Ÿ‘ป #795  6.466,3.363
CA N  9.829s 2023-02-21 19:29 EXO_DRiPpY #796  6.533,3.296
AU Y  9.829s 2023-02-22 04:36 spryisax #797  6.383,3.446
US N  9.829s 2023-02-24 15:57 Sionic #798  6.433,3.396
NL N  9.829s 2023-02-24 17:38 Tijn #799  6.483,3.346
DK Y  9.829s 2023-02-25 19:25 BananMos #800  6.466,3.363
XK Y  9.829s 2023-02-28 09:33 dardani #801  6.533,3.296
NL Y  9.829s 2023-02-28 12:23 Randjesraker #802  6.466,3.363
DE N  9.829s 2023-02-28 16:58 imbad #803  6.533,3.296
NL N  9.829s 2023-02-28 17:32 Mr_Cow  ๐Ÿ‡ณ๐Ÿ‡ฑ #804  6.533,3.296
GR Y  9.829s 2023-02-28 21:23 furiox #805  6.516,3.313
NL N  9.829s 2023-03-01 18:56 HBClRuben #806  6.483,3.346
BE N  9.829s 2023-03-04 20:46 kebbe #807  6.533,3.296
MY Y  9.829s 2023-03-06 11:03 SethGure #808  6.533,3.296
CA Y  9.829s 2023-03-11 02:33 LTcrazysoup #809  6.466,3.363
US Y  9.829s 2023-03-12 17:15 Rysk. #810  6.516,3.313
US N  9.829s 2023-03-13 02:46 Bigmonkeyballs #811  6.500,3.329
US N  9.829s 2023-03-16 19:41 Guest7182 #812  6.450,3.379
PL N  9.829s 2023-03-18 20:13 Rogix #813  6.483,3.346
AU Y  9.829s 2023-03-22 07:12 Truko #814  6.533,3.296
GB Y  9.829s 2023-04-05 15:29 Big Sooosh #815  6.533,3.296
AU Y  9.829s 2023-04-17 12:31 TobyYyYy #816  6.466,3.363
SI Y  9.829s 2023-04-22 15:55 jansakrade #817  6.450,3.379
NL N  9.829s 2023-04-26 13:35 Guest6311 #818  6.516,3.313
GR Y  9.829s 2023-04-27 15:20 Suzyclan #819  6.450,3.379
FR Y  9.829s 2023-04-27 21:42 ¿dotflowๅ–ต #820  6.450,3.379
AU Y  9.829s 2023-04-29 12:36 Short #821  6.483,3.346
GB Y  9.829s 2023-04-30 02:08 magesheesh #822  6.450,3.379
AU Y  9.829s 2023-05-01 09:28 Cryptal #823  6.550,3.279
GB Y  9.829s 2023-05-04 06:57 MarshyTheCat #824  6.533,3.296
NL N  9.829s 2023-06-18 07:31 Froosti_XXL ๐Ÿ’ซ #825  6.516,3.313
FR N  9.829s 2023-06-30 10:02 Slampi v2 #826  6.450,3.379
AT N  9.829s 2023-08-12 17:34 Gfrasti #827  6.433,3.396
SI N  9.829s 2023-08-14 20:49 solarix #828  6.500,3.329
IT N  9.829s 2023-08-26 12:37 Unlocked #829  6.466,3.363
IS N  9.829s 2023-10-28 20:33 macys #830  6.483,3.346
DE N  9.829s 2023-11-03 15:14 Comeback Zidan #831  6.466,3.363
US N  9.829s 2024-01-12 19:15 ๐•ต๐–†๐–›๐–† #832  6.466,3.363
ES N  9.829s 2024-01-13 09:04 ErRoRXX #833  6.433,3.396
FR N  9.829s 2024-01-15 13:50 Roderrr #834  6.533,3.296
GB N  9.829s 2024-03-02 13:53 hi #835  6.450,3.379
FR N  9.829s 2024-10-06 11:44 deleted user #836  6.433,3.396
NL N  9.829s 2025-01-11 11:29 Yellie #837  6.433,3.396
CZ N  9.829s 2025-03-15 10:17 Saddkid have to know me #838  6.533,3.296
IL N  9.829s 2025-03-28 12:59 ImInYourPlanet #839  6.433,3.396
NO N  9.829s 2025-04-17 19:12 X-Raycer™๏ธ #840  6.483,3.346
US N  9.829s 2026-01-02 18:33 Skylighter #841  6.483,3.346
BE N  9.829s 2026-05-02 17:53 Wazzap #842  6.450,3.379
US N  9.829s 2026-05-05 01:39 vanish #843  6.533,3.296
US N  9.830s 2023-02-17 14:01 JJoywastaken #844  6.533,3.297
JP N  9.830s 2023-02-21 09:36 Alteltett #845  6.516,3.314
HK N  9.830s 2023-02-21 13:03 Limit #846  6.533,3.297
US Y  9.830s 2023-03-05 22:50 GravyBoat27 #847  6.450,3.380
CA N  9.830s 2023-03-17 14:14 Goat #848  6.450,3.380
ID Y  9.830s 2023-03-19 05:14 ExoErvN #849  6.533,3.297
AQ N  9.830s 2023-04-01 06:13 deleted user #850  6.500,3.330
AU N  9.830s 2023-04-28 21:31 Magic #851  6.516,3.314
NL N  9.830s 2023-06-26 18:24 FT #852  6.450,3.380
FR N  9.830s 2024-06-03 09:29 bibubombe #853  6.516,3.314
BE N  9.830s 2024-07-11 21:22 The Goat #854  6.466,3.364
ES N  9.830s 2025-02-19 15:57 Hxgo6040 #855  6.450,3.380
JP N  9.830s 2025-11-23 09:13 taro~YANEN #856  6.533,3.297
NL N  9.831s 2023-02-06 10:20 UnvaryingCardin #857  6.433,3.398
GB N  9.831s 2023-03-31 15:38 Hgyca #858  6.450,3.381
BG N  9.831s 2024-12-08 19:56 Sz' #859  6.450,3.381
US Y  9.843s 2023-04-26 00:39 pesto #860  6.450,3.393
NL N  9.843s 2026-01-12 19:43 Daanomaan #861  6.516,3.327
GB N  9.844s 2023-02-14 18:07 retired 2022 #862  6.433,3.411
DE Y  9.844s 2023-04-14 06:13 Ge1st #863  6.416,3.428
DE N  9.846s 2023-02-04 19:47 exocup 202 #864  6.466,3.380
CA N  9.846s 2023-02-05 20:09 gordie is bad #865  6.533,3.313
IL N  9.846s 2023-02-06 11:23 glu #866  6.450,3.396
RU N  9.846s 2023-02-06 17:06 TheJulfor #867  6.483,3.363
TR N  9.846s 2023-02-07 20:48 Ahmet #868  6.566,3.280
AU N  9.846s 2023-02-09 07:47 Xeno #869  6.450,3.396
NL N  9.846s 2023-02-10 15:28 ๐”ข๐”ช๐”Ÿ๐”ฏ๐”ž๐” ๐”ข #870  6.500,3.346
NL N  9.846s 2023-02-11 13:19 Exoracer-morris #871  6.566,3.280
BA Y  9.846s 2023-02-14 14:50 unknown #872  6.466,3.380
PL N  9.846s 2023-02-14 15:20 Fragersxy #873  6.466,3.380
BE N  9.846s 2023-02-14 17:13 waffleboii44 #874  6.550,3.296
NL N  9.846s 2023-02-14 19:07 Guest2535 #875  6.516,3.330
US N  9.846s 2023-02-14 21:49 Zap #876  6.550,3.296
BE N  9.846s 2023-02-15 11:33 Cheesyduck #877  6.550,3.296
NL Y  9.846s 2023-02-15 19:57 Dinospeedruns #878  6.483,3.363
LV N  9.846s 2023-02-16 06:27 Henijo #879  6.433,3.413
US N  9.846s 2023-02-16 11:57 Dynamic Bread #880  6.466,3.380
SG N  9.846s 2023-02-16 12:05 Strange #881  6.550,3.296
US N  9.846s 2023-02-18 13:24 lukie is washed #882  6.483,3.363
FR N  9.846s 2023-02-19 14:27 Carrot #883  6.483,3.363
NL N  9.846s 2023-02-19 18:17 Guest4988 #884  6.466,3.380
DE N  9.846s 2023-02-21 06:58 Guest2434 #885  6.450,3.396
US Y  9.846s 2023-02-21 20:58 wixz #886  6.450,3.396
GB N  9.846s 2023-02-22 15:03 Guest1615 #887  6.550,3.296
DK N  9.846s 2023-02-23 19:06 Titoanst #888  6.483,3.363
FR N  9.846s 2023-02-28 16:29 NxCzytFR #889  6.516,3.330
EE N  9.846s 2023-03-01 15:59 BagOfChips69 #890  6.533,3.313
NO N  9.846s 2023-03-01 18:42 TheGoat #891  6.550,3.296
NL N  9.846s 2023-03-02 11:46 sajasuper #892  6.450,3.396
CZ N  9.846s 2023-03-02 15:15 kikixx #893  6.466,3.380
ES N  9.846s 2023-03-02 17:32 Not a guest #894  6.533,3.313
CA Y  9.846s 2023-03-04 01:48 Moonlightfox0 #895  6.466,3.380
PL N  9.846s 2023-03-04 06:26 MenelzKrosna #896  6.483,3.363
US Y  9.846s 2023-03-04 20:52 Mr Grape Man #897  6.516,3.330
DE Y  9.846s 2023-03-05 09:06 Jayy #898  6.483,3.363
NL N  9.846s 2023-03-05 14:21 CoolBanana #899  6.516,3.330
CA Y  9.846s 2023-03-07 01:41 Eatmyass69 #900  6.566,3.280
NL N  9.846s 2023-03-08 21:29 Mcfishky #901  6.550,3.296
FR N  9.846s 2023-03-09 07:28 lelimougeaud #902  6.550,3.296
SE N  9.846s 2023-03-09 14:26 Big Shaqy #903  6.550,3.296
PL N  9.846s 2023-03-10 16:03 Y3dr3kk_ #904  6.466,3.380
UA Y  9.846s 2023-03-15 07:16 Phoenix #905  6.450,3.396
NL N  9.846s 2023-03-15 18:08 DuncanYT13 #906  6.550,3.296
US Y  9.846s 2023-03-28 08:43 Taco #907  6.516,3.330
FR N  9.846s 2023-03-29 08:59 nenoxx78 #908  6.483,3.363
AU Y  9.846s 2023-04-15 09:04 Bum Epic #909  6.466,3.380
PL Y  9.846s 2023-04-18 05:19 midnight teddy #910  6.550,3.296
HU N  9.846s 2023-04-18 19:46 noki23 #911  6.550,3.296
NL Y  9.846s 2023-04-19 21:07 Finleyo #912  6.483,3.363
FR Y  9.846s 2023-04-21 07:22 YanisM11 #913  6.533,3.313
SE N  9.846s 2023-04-22 11:25 Tintin #914  6.533,3.313
US Y  9.846s 2023-04-22 22:04 ‎‎ู‹ #915  6.466,3.380
JP Y  9.846s 2023-04-24 12:54 Benzene #916  6.550,3.296
FR N  9.846s 2023-04-27 10:47 ใƒ๐–”๐–๐’š๐Ÿ’˜๐Ÿฅฑ #917  6.466,3.380
NL N  9.846s 2023-05-02 12:47 Spectro #918  6.466,3.380
GB Y  9.846s 2023-05-03 20:50 pip1x #919  6.550,3.296
NL N  9.846s 2023-05-06 11:19 frankaking #920  6.550,3.296
SK N  9.846s 2023-05-15 18:23 WholeNightSam #921  6.483,3.363
GB N  9.846s 2023-05-24 02:28 poto!!! #922  6.550,3.296
US N  9.846s 2023-06-13 21:06 Abell #923  6.466,3.380
TR N  9.846s 2023-07-10 12:07 A Fly #924  6.466,3.380
US N  9.846s 2023-07-23 23:56 deleted user #925  6.483,3.363
AU N  9.846s 2023-08-06 08:15 theobaldthebird. #926  6.466,3.380
AU N  9.846s 2023-11-03 10:12 Galaxxy #927  6.466,3.380
SI N  9.846s 2023-11-11 15:53 matejkoo #928  6.483,3.363
LU N  9.846s 2024-01-10 15:32 Billtheboss #929  6.400,3.446
FO N  9.846s 2024-05-10 09:32 AndriasMellem #930  6.483,3.363
KZ N  9.846s 2024-10-19 15:09 landyy #931  6.466,3.380
BE N  9.846s 2025-04-22 12:52 kasper #932  6.466,3.380
PL N  9.846s 2025-11-26 14:43 BOB #933  6.466,3.380
NL N  9.846s 2025-12-21 17:51 Fenderremember #934  6.483,3.363
IL N  9.846s 2026-01-20 05:14 Guydi7 #935  6.450,3.396
PH N  9.846s 2026-04-03 03:04 Xenon #936  6.483,3.363
NO N  9.847s 2023-02-05 20:57 Sigve2011 #937  6.466,3.381
US N  9.847s 2023-02-15 04:38 EpikKRe8 #938  6.533,3.314
GB N  9.847s 2023-02-20 20:04 Amusingpandaz #939  6.466,3.381
IT N  9.847s 2023-02-20 21:15 Jekkulugulu #940  6.483,3.364
US N  9.847s 2023-02-22 23:05 sty #941  6.416,3.431
DK N  9.847s 2023-02-27 10:35 Nikodeon #942  6.450,3.397
FR Y  9.847s 2023-03-18 21:05 Drago032 #943  6.550,3.297
PL N  9.847s 2023-03-23 06:24 isiock666 #944  6.533,3.314
US Y  9.847s 2023-04-08 20:27 v370c1ty #945  6.433,3.414
NL N  9.847s 2023-04-14 07:05 M E N N O #946  6.550,3.297
NL Y  9.847s 2023-04-20 09:04 Noahpro #947  6.533,3.314
DE N  9.847s 2023-10-05 10:08 blxckexoracerTT #948  6.450,3.397
SE N  9.847s 2024-02-22 14:57 TallMaestro #949  6.516,3.331
GB N  9.847s 2024-03-29 22:58 Liam G 2010 #950  6.500,3.347
AU N  9.847s 2024-03-30 08:29 AmusingDolphin #951  6.483,3.364
NL N  9.847s 2024-04-19 15:12 Kaas #952  6.550,3.297
PL N  9.847s 2025-10-08 08:05 ItsJojooxx #953  6.433,3.414
HU N  9.860s 2023-02-15 09:33 Zada645 #954  6.466,3.394
IT Y  9.860s 2023-04-04 05:59 i love dillwill #955  6.466,3.394
AT N  9.860s 2023-04-23 07:12 Insanecarpet #956  6.466,3.394
US N  9.860s 2023-12-26 18:10 Sashaplayz #957  6.466,3.394
RU N  9.860s 2024-01-10 15:33 ๐™ฐ๐•Œ๐“๐‘ถM๐™ฐ๐“๐—ฎ #958  6.433,3.427
US N  9.861s 2023-02-10 03:31 Judebetter #959  6.533,3.328
AU N  9.863s 2023-02-06 06:46 Dano fan #960  6.566,3.297
FR N  9.863s 2023-02-07 18:30 Lazerrrre #961  6.566,3.297
TT N  9.863s 2023-02-07 21:55 Xysmix #962  6.516,3.347
US N  9.863s 2023-02-07 22:28 Jamaican Army #963  6.533,3.330
US N  9.863s 2023-02-08 03:07 deleted user #964  6.500,3.363
NL N  9.863s 2023-02-08 17:19 remarein #965  6.550,3.313
US N  9.863s 2023-02-10 19:00 Legacy #966  6.566,3.297
NZ N  9.863s 2023-02-12 19:40 UrDogwater #967  6.450,3.413
BE N  9.863s 2023-02-14 08:59 pussyeater69 #968  6.566,3.297
GB Y  9.863s 2023-02-14 11:26 ρhoะฟeัƒ๐Ÿฅฑ๐Ÿฅฑ #969  6.483,3.380
US N  9.863s 2023-02-15 15:41 drip #970  6.466,3.397
IL N  9.863s 2023-02-15 17:08 poiuy #971  6.516,3.347
AT N  9.863s 2023-02-15 21:54 Sxhlud1 #972  6.483,3.380
BE N  9.863s 2023-02-16 15:48 under #973  6.450,3.413
SE N  9.863s 2023-02-16 15:59 TheDoctorCoconu #974  6.583,3.280
SE Y  9.863s 2023-02-16 22:17 Liam #975  6.550,3.313
GB Y  9.863s 2023-02-18 08:36 Travnav #976  6.500,3.363
BE N  9.863s 2023-02-18 18:26 Zenosis #977  6.483,3.380
DE Y  9.863s 2023-02-19 18:48 4kill33 #978  6.466,3.397
US N  9.863s 2023-02-20 02:01 HurtsSoGoodDadd #979  6.483,3.380
AU N  9.863s 2023-02-20 04:52 Jeeby #980  6.533,3.330
RO N  9.863s 2023-02-20 14:45 Guest3098 #981  6.500,3.363
DE N  9.863s 2023-02-22 11:39 LionGHG1 #982  6.500,3.363
CH N  9.863s 2023-02-22 14:49 Leo #983  6.566,3.297
DE Y  9.863s 2023-02-23 14:15 EDWARD #984  6.466,3.397
BR N  9.863s 2023-02-24 00:19 MeatyTorpedo968 #985  6.566,3.297
NL N  9.863s 2023-02-25 12:01 clens8 #986  6.466,3.397
NL Y  9.863s 2023-02-26 08:57 SenTio #987  6.550,3.313
NL N  9.863s 2023-02-26 09:10 themelman10 #988  6.583,3.280
US Y  9.863s 2023-02-28 12:23 mad cats #989  6.533,3.330
US N  9.863s 2023-02-28 15:19 VanillaMilk #990  6.433,3.430
US N  9.863s 2023-03-03 22:27 harsh #991  6.500,3.363
GE N  9.863s 2023-03-04 16:11 173Lv3 #992  6.483,3.380
FI Y  9.863s 2023-03-04 17:40 jeroolo #993  6.483,3.380
TR Y  9.863s 2023-03-07 17:43 iremisko #994  6.550,3.313
FR Y  9.863s 2023-03-10 16:29 Guest6854 #995  6.500,3.363
TW N  9.863s 2023-03-16 02:47 Guest1996 #996  6.566,3.297
AU N  9.863s 2023-03-19 09:19 xMqster #997  6.483,3.380
AG Y  9.863s 2023-03-19 15:56 Jit #998  6.483,3.380
GB N  9.863s 2023-03-20 13:42 Bulsaca1234 #999  6.466,3.397
EE N  9.863s 2023-03-22 17:52 Ollar #1000  6.550,3.313

Next page